sensor_id;sensor_type;location;lat;lon;timestamp;P1;durP1;ratioP1;P2;durP2;ratioP2
17253;SDS011;32542;52.832;13.816;2023-02-23T00:00:47;10.80;;;4.30;;
17253;SDS011;32542;52.832;13.816;2023-02-23T00:03:52;10.95;;;4.10;;
17253;SDS011;32542;52.832;13.816;2023-02-23T00:06:58;10.73;;;4.70;;
17253;SDS011;32542;52.832;13.816;2023-02-23T00:10:01;14.98;;;4.95;;
17253;SDS011;32542;52.832;13.816;2023-02-23T00:13:04;11.02;;;4.95;;
17253;SDS011;32542;52.832;13.816;2023-02-23T00:16:07;10.80;;;4.50;;
17253;SDS011;32542;52.832;13.816;2023-02-23T00:19:13;8.27;;;4.32;;
17253;SDS011;32542;52.832;13.816;2023-02-23T00:22:17;8.82;;;4.68;;
17253;SDS011;32542;52.832;13.816;2023-02-23T00:25:21;9.48;;;4.00;;
17253;SDS011;32542;52.832;13.816;2023-02-23T00:28:25;9.65;;;4.10;;
17253;SDS011;32542;52.832;13.816;2023-02-23T00:31:28;9.27;;;4.18;;
17253;SDS011;32542;52.832;13.816;2023-02-23T00:34:32;9.18;;;4.20;;
17253;SDS011;32542;52.832;13.816;2023-02-23T00:37:38;10.77;;;4.10;;
17253;SDS011;32542;52.832;13.816;2023-02-23T00:40:41;12.27;;;4.22;;
17253;SDS011;32542;52.832;13.816;2023-02-23T00:43:45;10.20;;;4.45;;
17253;SDS011;32542;52.832;13.816;2023-02-23T00:46:49;10.60;;;4.30;;
17253;SDS011;32542;52.832;13.816;2023-02-23T00:49:53;6.78;;;4.00;;
17253;SDS011;32542;52.832;13.816;2023-02-23T00:52:57;9.52;;;4.05;;
17253;SDS011;32542;52.832;13.816;2023-02-23T00:56:03;10.13;;;3.92;;
17253;SDS011;32542;52.832;13.816;2023-02-23T00:59:06;10.20;;;4.40;;
17253;SDS011;32542;52.832;13.816;2023-02-23T01:02:09;8.02;;;4.05;;
17253;SDS011;32542;52.832;13.816;2023-02-23T01:05:13;11.75;;;3.95;;
17253;SDS011;32542;52.832;13.816;2023-02-23T01:08:18;9.32;;;3.90;;
17253;SDS011;32542;52.832;13.816;2023-02-23T01:11:22;7.68;;;3.65;;
17253;SDS011;32542;52.832;13.816;2023-02-23T01:14:28;8.38;;;4.10;;
17253;SDS011;32542;52.832;13.816;2023-02-23T01:17:31;9.38;;;4.18;;
17253;SDS011;32542;52.832;13.816;2023-02-23T01:20:35;10.55;;;3.83;;
17253;SDS011;32542;52.832;13.816;2023-02-23T01:23:40;6.55;;;3.17;;
17253;SDS011;32542;52.832;13.816;2023-02-23T01:26:43;8.50;;;4.10;;
17253;SDS011;32542;52.832;13.816;2023-02-23T01:29:49;8.73;;;3.80;;
17253;SDS011;32542;52.832;13.816;2023-02-23T01:32:52;8.40;;;4.28;;
17253;SDS011;32542;52.832;13.816;2023-02-23T01:35:56;11.20;;;4.05;;
17253;SDS011;32542;52.832;13.816;2023-02-23T01:39:01;8.57;;;3.78;;
17253;SDS011;32542;52.832;13.816;2023-02-23T01:42:09;9.35;;;4.20;;
17253;SDS011;32542;52.832;13.816;2023-02-23T01:45:20;9.02;;;3.97;;
17253;SDS011;32542;52.832;13.816;2023-02-23T01:48:26;8.98;;;3.90;;
17253;SDS011;32542;52.832;13.816;2023-02-23T01:51:36;9.23;;;3.92;;
17253;SDS011;32542;52.832;13.816;2023-02-23T01:54:45;9.85;;;4.40;;
17253;SDS011;32542;52.832;13.816;2023-02-23T01:57:52;7.38;;;3.97;;
17253;SDS011;32542;52.832;13.816;2023-02-23T02:00:58;5.97;;;3.90;;
17253;SDS011;32542;52.832;13.816;2023-02-23T02:04:03;6.63;;;3.88;;
17253;SDS011;32542;52.832;13.816;2023-02-23T02:07:07;7.05;;;4.05;;
17253;SDS011;32542;52.832;13.816;2023-02-23T02:10:11;9.45;;;4.20;;
17253;SDS011;32542;52.832;13.816;2023-02-23T02:13:32;9.02;;;4.20;;
17253;SDS011;32542;52.832;13.816;2023-02-23T02:16:46;8.85;;;4.40;;
17253;SDS011;32542;52.832;13.816;2023-02-23T02:23:45;8.00;;;4.13;;
17253;SDS011;32542;52.832;13.816;2023-02-23T02:27:16;9.35;;;4.35;;
17253;SDS011;32542;52.832;13.816;2023-02-23T02:30:34;8.45;;;3.80;;
17253;SDS011;32542;52.832;13.816;2023-02-23T02:33:56;6.43;;;3.78;;
17253;SDS011;32542;52.832;13.816;2023-02-23T02:41:03;8.90;;;3.72;;
17253;SDS011;32542;52.832;13.816;2023-02-23T02:44:16;7.65;;;3.97;;
17253;SDS011;32542;52.832;13.816;2023-02-23T02:47:25;9.07;;;4.25;;
17253;SDS011;32542;52.832;13.816;2023-02-23T02:50:38;8.18;;;4.10;;
17253;SDS011;32542;52.832;13.816;2023-02-23T02:53:47;6.40;;;3.78;;
17253;SDS011;32542;52.832;13.816;2023-02-23T02:57:00;9.68;;;4.25;;
17253;SDS011;32542;52.832;13.816;2023-02-23T03:00:06;7.32;;;3.80;;
17253;SDS011;32542;52.832;13.816;2023-02-23T03:03:28;10.35;;;4.13;;
17253;SDS011;32542;52.832;13.816;2023-02-23T03:06:52;7.28;;;4.05;;
17253;SDS011;32542;52.832;13.816;2023-02-23T03:10:22;8.82;;;4.43;;
17253;SDS011;32542;52.832;13.816;2023-02-23T03:14:00;8.00;;;4.57;;
17253;SDS011;32542;52.832;13.816;2023-02-23T03:17:29;7.57;;;3.92;;
17253;SDS011;32542;52.832;13.816;2023-02-23T03:20:56;10.40;;;4.03;;
17253;SDS011;32542;52.832;13.816;2023-02-23T03:24:24;8.40;;;3.92;;
17253;SDS011;32542;52.832;13.816;2023-02-23T03:27:56;6.82;;;4.03;;
17253;SDS011;32542;52.832;13.816;2023-02-23T03:31:25;6.80;;;4.10;;
17253;SDS011;32542;52.832;13.816;2023-02-23T03:34:52;8.82;;;4.32;;
17253;SDS011;32542;52.832;13.816;2023-02-23T03:38:19;7.25;;;4.47;;
17253;SDS011;32542;52.832;13.816;2023-02-23T03:41:48;8.50;;;4.00;;
17253;SDS011;32542;52.832;13.816;2023-02-23T03:45:13;6.97;;;4.05;;
17253;SDS011;32542;52.832;13.816;2023-02-23T03:48:40;7.97;;;4.22;;
17253;SDS011;32542;52.832;13.816;2023-02-23T03:52:06;6.82;;;3.88;;
17253;SDS011;32542;52.832;13.816;2023-02-23T03:55:33;6.53;;;4.00;;
17253;SDS011;32542;52.832;13.816;2023-02-23T03:58:57;7.15;;;4.10;;
17253;SDS011;32542;52.832;13.816;2023-02-23T04:02:19;6.80;;;3.55;;
17253;SDS011;32542;52.832;13.816;2023-02-23T04:05:44;9.60;;;4.63;;
17253;SDS011;32542;52.832;13.816;2023-02-23T04:09:09;9.18;;;4.20;;
17253;SDS011;32542;52.832;13.816;2023-02-23T04:12:32;6.32;;;3.67;;
17253;SDS011;32542;52.832;13.816;2023-02-23T04:15:58;10.02;;;4.82;;
17253;SDS011;32542;52.832;13.816;2023-02-23T04:19:03;6.50;;;4.22;;
17253;SDS011;32542;52.832;13.816;2023-02-23T04:22:08;8.20;;;4.32;;
17253;SDS011;32542;52.832;13.816;2023-02-23T04:25:12;8.88;;;4.47;;
17253;SDS011;32542;52.832;13.816;2023-02-23T04:28:18;7.57;;;4.18;;
17253;SDS011;32542;52.832;13.816;2023-02-23T04:31:21;8.02;;;4.10;;
17253;SDS011;32542;52.832;13.816;2023-02-23T04:34:26;8.82;;;4.10;;
17253;SDS011;32542;52.832;13.816;2023-02-23T04:37:30;9.98;;;4.38;;
17253;SDS011;32542;52.832;13.816;2023-02-23T04:40:33;9.93;;;4.53;;
17253;SDS011;32542;52.832;13.816;2023-02-23T04:43:36;6.90;;;3.95;;
17253;SDS011;32542;52.832;13.816;2023-02-23T04:46:39;6.00;;;3.67;;
17253;SDS011;32542;52.832;13.816;2023-02-23T04:49:42;6.15;;;3.72;;
17253;SDS011;32542;52.832;13.816;2023-02-23T04:52:47;8.00;;;4.10;;
17253;SDS011;32542;52.832;13.816;2023-02-23T04:55:50;7.38;;;4.15;;
17253;SDS011;32542;52.832;13.816;2023-02-23T04:58:53;9.48;;;4.25;;
17253;SDS011;32542;52.832;13.816;2023-02-23T05:01:56;6.78;;;4.20;;
17253;SDS011;32542;52.832;13.816;2023-02-23T05:04:59;7.10;;;3.92;;
17253;SDS011;32542;52.832;13.816;2023-02-23T05:08:04;6.80;;;3.80;;
17253;SDS011;32542;52.832;13.816;2023-02-23T05:11:08;10.40;;;4.32;;
17253;SDS011;32542;52.832;13.816;2023-02-23T05:14:11;7.88;;;4.57;;
17253;SDS011;32542;52.832;13.816;2023-02-23T05:17:14;9.30;;;4.38;;
17253;SDS011;32542;52.832;13.816;2023-02-23T05:20:17;7.90;;;4.82;;
17253;SDS011;32542;52.832;13.816;2023-02-23T05:23:22;7.80;;;4.38;;
17253;SDS011;32542;52.832;13.816;2023-02-23T05:26:25;6.85;;;4.00;;
17253;SDS011;32542;52.832;13.816;2023-02-23T05:29:28;6.53;;;4.38;;
17253;SDS011;32542;52.832;13.816;2023-02-23T05:32:31;8.57;;;4.35;;
17253;SDS011;32542;52.832;13.816;2023-02-23T05:35:34;6.57;;;4.13;;
17253;SDS011;32542;52.832;13.816;2023-02-23T05:38:38;6.03;;;3.97;;
17253;SDS011;32542;52.832;13.816;2023-02-23T05:41:42;8.90;;;4.55;;
17253;SDS011;32542;52.832;13.816;2023-02-23T05:44:45;9.48;;;4.25;;
17253;SDS011;32542;52.832;13.816;2023-02-23T05:47:48;8.18;;;4.68;;
17253;SDS011;32542;52.832;13.816;2023-02-23T05:50:52;6.50;;;3.67;;
17253;SDS011;32542;52.832;13.816;2023-02-23T05:53:56;8.13;;;4.50;;
17253;SDS011;32542;52.832;13.816;2023-02-23T05:57:00;5.60;;;3.67;;
17253;SDS011;32542;52.832;13.816;2023-02-23T06:00:03;8.35;;;3.75;;
17253;SDS011;32542;52.832;13.816;2023-02-23T06:03:08;8.35;;;4.20;;
17253;SDS011;32542;52.832;13.816;2023-02-23T06:06:11;10.23;;;4.63;;
17253;SDS011;32542;52.832;13.816;2023-02-23T06:09:16;10.23;;;4.50;;
17253;SDS011;32542;52.832;13.816;2023-02-23T06:12:19;10.90;;;4.70;;
17253;SDS011;32542;52.832;13.816;2023-02-23T06:15:23;13.35;;;4.38;;
17253;SDS011;32542;52.832;13.816;2023-02-23T06:18:27;7.80;;;4.05;;
17253;SDS011;32542;52.832;13.816;2023-02-23T06:21:31;10.13;;;4.65;;
17253;SDS011;32542;52.832;13.816;2023-02-23T06:24:35;12.25;;;4.80;;
17253;SDS011;32542;52.832;13.816;2023-02-23T06:27:39;11.57;;;4.53;;
17253;SDS011;32542;52.832;13.816;2023-02-23T06:30:42;11.32;;;4.85;;
17253;SDS011;32542;52.832;13.816;2023-02-23T06:33:47;11.73;;;4.78;;
17253;SDS011;32542;52.832;13.816;2023-02-23T06:36:51;11.57;;;4.55;;
17253;SDS011;32542;52.832;13.816;2023-02-23T06:39:55;7.50;;;4.35;;
17253;SDS011;32542;52.832;13.816;2023-02-23T06:42:59;11.18;;;4.60;;
17253;SDS011;32542;52.832;13.816;2023-02-23T06:46:04;11.18;;;4.38;;
17253;SDS011;32542;52.832;13.816;2023-02-23T06:49:08;9.73;;;4.35;;
17253;SDS011;32542;52.832;13.816;2023-02-23T06:52:15;10.40;;;4.35;;
17253;SDS011;32542;52.832;13.816;2023-02-23T06:55:20;9.35;;;4.78;;
17253;SDS011;32542;52.832;13.816;2023-02-23T06:58:23;8.40;;;4.03;;
17253;SDS011;32542;52.832;13.816;2023-02-23T07:01:26;8.57;;;4.38;;
17253;SDS011;32542;52.832;13.816;2023-02-23T07:04:30;8.70;;;4.30;;
17253;SDS011;32542;52.832;13.816;2023-02-23T07:07:33;7.45;;;3.97;;
17253;SDS011;32542;52.832;13.816;2023-02-23T07:10:37;8.32;;;4.25;;
17253;SDS011;32542;52.832;13.816;2023-02-23T07:13:41;8.43;;;4.30;;
17253;SDS011;32542;52.832;13.816;2023-02-23T07:16:44;9.10;;;4.68;;
17253;SDS011;32542;52.832;13.816;2023-02-23T07:19:47;9.32;;;4.35;;
17253;SDS011;32542;52.832;13.816;2023-02-23T07:22:50;7.00;;;4.18;;
17253;SDS011;32542;52.832;13.816;2023-02-23T07:25:54;10.00;;;5.32;;
17253;SDS011;32542;52.832;13.816;2023-02-23T07:28:58;10.77;;;4.40;;
17253;SDS011;32542;52.832;13.816;2023-02-23T07:32:02;6.90;;;4.05;;
17253;SDS011;32542;52.832;13.816;2023-02-23T07:35:05;9.30;;;4.80;;
17253;SDS011;32542;52.832;13.816;2023-02-23T07:38:09;10.05;;;4.53;;
17253;SDS011;32542;52.832;13.816;2023-02-23T07:41:14;14.85;;;6.28;;
17253;SDS011;32542;52.832;13.816;2023-02-23T07:44:17;10.80;;;6.85;;
17253;SDS011;32542;52.832;13.816;2023-02-23T07:47:21;15.65;;;7.85;;
17253;SDS011;32542;52.832;13.816;2023-02-23T07:50:31;20.08;;;8.75;;
17253;SDS011;32542;52.832;13.816;2023-02-23T07:53:34;13.55;;;7.70;;
17253;SDS011;32542;52.832;13.816;2023-02-23T07:56:38;15.80;;;8.93;;
17253;SDS011;32542;52.832;13.816;2023-02-23T07:59:41;16.40;;;8.50;;
17253;SDS011;32542;52.832;13.816;2023-02-23T08:02:44;17.67;;;9.02;;
17253;SDS011;32542;52.832;13.816;2023-02-23T08:05:48;15.73;;;8.45;;
17253;SDS011;32542;52.832;13.816;2023-02-23T08:08:51;15.85;;;8.98;;
17253;SDS011;32542;52.832;13.816;2023-02-23T08:11:55;17.83;;;8.77;;
17253;SDS011;32542;52.832;13.816;2023-02-23T08:14:58;27.67;;;9.20;;
17253;SDS011;32542;52.832;13.816;2023-02-23T08:18:01;25.08;;;8.57;;
17253;SDS011;32542;52.832;13.816;2023-02-23T08:21:05;20.88;;;8.35;;
17253;SDS011;32542;52.832;13.816;2023-02-23T08:24:09;19.45;;;8.20;;
17253;SDS011;32542;52.832;13.816;2023-02-23T08:27:14;18.10;;;7.63;;
17253;SDS011;32542;52.832;13.816;2023-02-23T08:30:17;15.93;;;7.75;;
17253;SDS011;32542;52.832;13.816;2023-02-23T08:33:21;21.35;;;7.70;;
17253;SDS011;32542;52.832;13.816;2023-02-23T08:36:25;16.65;;;7.03;;
17253;SDS011;32542;52.832;13.816;2023-02-23T08:39:28;12.48;;;7.13;;
17253;SDS011;32542;52.832;13.816;2023-02-23T08:42:32;13.32;;;7.22;;
17253;SDS011;32542;52.832;13.816;2023-02-23T08:45:36;15.00;;;7.50;;
17253;SDS011;32542;52.832;13.816;2023-02-23T08:48:40;15.05;;;6.97;;
17253;SDS011;32542;52.832;13.816;2023-02-23T08:51:43;17.13;;;6.97;;
17253;SDS011;32542;52.832;13.816;2023-02-23T08:54:47;15.05;;;6.63;;
17253;SDS011;32542;52.832;13.816;2023-02-23T08:57:51;14.48;;;6.93;;
17253;SDS011;32542;52.832;13.816;2023-02-23T09:00:54;17.77;;;6.93;;
17253;SDS011;32542;52.832;13.816;2023-02-23T09:03:58;15.98;;;6.50;;
17253;SDS011;32542;52.832;13.816;2023-02-23T09:07:02;12.13;;;6.38;;
17253;SDS011;32542;52.832;13.816;2023-02-23T09:10:05;11.70;;;6.22;;
17253;SDS011;32542;52.832;13.816;2023-02-23T09:13:11;14.32;;;6.75;;
17253;SDS011;32542;52.832;13.816;2023-02-23T09:16:14;18.10;;;6.30;;
17253;SDS011;32542;52.832;13.816;2023-02-23T09:19:18;10.85;;;6.43;;
17253;SDS011;32542;52.832;13.816;2023-02-23T09:22:21;19.88;;;7.13;;
17253;SDS011;32542;52.832;13.816;2023-02-23T09:25:24;11.43;;;6.03;;
17253;SDS011;32542;52.832;13.816;2023-02-23T09:28:31;11.95;;;6.25;;
17253;SDS011;32542;52.832;13.816;2023-02-23T09:31:34;11.38;;;6.35;;
17253;SDS011;32542;52.832;13.816;2023-02-23T09:34:37;12.05;;;5.63;;
17253;SDS011;32542;52.832;13.816;2023-02-23T09:37:40;11.98;;;5.78;;
17253;SDS011;32542;52.832;13.816;2023-02-23T09:40:44;11.48;;;6.07;;
17253;SDS011;32542;52.832;13.816;2023-02-23T09:43:52;13.93;;;6.43;;
17253;SDS011;32542;52.832;13.816;2023-02-23T09:47:04;14.00;;;6.45;;
17253;SDS011;32542;52.832;13.816;2023-02-23T09:50:20;11.68;;;6.50;;
17253;SDS011;32542;52.832;13.816;2023-02-23T09:53:29;14.38;;;6.43;;
17253;SDS011;32542;52.832;13.816;2023-02-23T09:56:37;11.85;;;6.13;;
17253;SDS011;32542;52.832;13.816;2023-02-23T09:59:44;11.25;;;5.93;;
17253;SDS011;32542;52.832;13.816;2023-02-23T10:06:14;10.90;;;5.90;;
17253;SDS011;32542;52.832;13.816;2023-02-23T10:09:23;10.98;;;5.97;;
17253;SDS011;32542;52.832;13.816;2023-02-23T10:12:38;11.55;;;6.18;;
17253;SDS011;32542;52.832;13.816;2023-02-23T10:15:49;11.60;;;6.35;;
17253;SDS011;32542;52.832;13.816;2023-02-23T10:18:57;15.70;;;5.80;;
17253;SDS011;32542;52.832;13.816;2023-02-23T10:22:08;10.32;;;5.95;;
17253;SDS011;32542;52.832;13.816;2023-02-23T10:25:14;12.18;;;6.25;;
17253;SDS011;32542;52.832;13.816;2023-02-23T10:28:23;11.73;;;6.78;;
17253;SDS011;32542;52.832;13.816;2023-02-23T10:31:29;12.10;;;6.90;;
17253;SDS011;32542;52.832;13.816;2023-02-23T10:34:38;11.15;;;6.63;;
17253;SDS011;32542;52.832;13.816;2023-02-23T10:37:42;11.27;;;6.75;;
17253;SDS011;32542;52.832;13.816;2023-02-23T10:40:48;13.10;;;8.25;;
17253;SDS011;32542;52.832;13.816;2023-02-23T10:43:56;15.50;;;8.25;;
17253;SDS011;32542;52.832;13.816;2023-02-23T10:47:18;16.23;;;8.90;;
17253;SDS011;32542;52.832;13.816;2023-02-23T10:50:24;13.25;;;8.20;;
17253;SDS011;32542;52.832;13.816;2023-02-23T10:53:30;16.77;;;8.57;;
17253;SDS011;32542;52.832;13.816;2023-02-23T10:56:41;14.45;;;8.60;;
17253;SDS011;32542;52.832;13.816;2023-02-23T11:00:07;13.90;;;8.82;;
17253;SDS011;32542;52.832;13.816;2023-02-23T11:03:31;16.83;;;9.18;;
17253;SDS011;32542;52.832;13.816;2023-02-23T11:06:38;15.38;;;9.77;;
17253;SDS011;32542;52.832;13.816;2023-02-23T11:09:43;16.48;;;9.50;;
17253;SDS011;32542;52.832;13.816;2023-02-23T11:12:48;15.52;;;10.25;;
17253;SDS011;32542;52.832;13.816;2023-02-23T11:15:56;15.00;;;9.98;;
17253;SDS011;32542;52.832;13.816;2023-02-23T11:19:04;16.67;;;10.82;;
17253;SDS011;32542;52.832;13.816;2023-02-23T11:22:19;15.65;;;11.43;;
17253;SDS011;32542;52.832;13.816;2023-02-23T11:25:24;16.13;;;10.80;;
17253;SDS011;32542;52.832;13.816;2023-02-23T11:28:32;20.65;;;10.93;;
17253;SDS011;32542;52.832;13.816;2023-02-23T11:31:37;15.75;;;10.73;;
17253;SDS011;32542;52.832;13.816;2023-02-23T11:34:42;23.45;;;11.20;;
17253;SDS011;32542;52.832;13.816;2023-02-23T11:37:48;20.85;;;11.13;;
17253;SDS011;32542;52.832;13.816;2023-02-23T11:40:57;17.17;;;11.57;;
17253;SDS011;32542;52.832;13.816;2023-02-23T11:44:02;17.77;;;11.30;;
17253;SDS011;32542;52.832;13.816;2023-02-23T11:47:12;17.63;;;11.63;;
17253;SDS011;32542;52.832;13.816;2023-02-23T11:50:22;17.20;;;11.13;;
17253;SDS011;32542;52.832;13.816;2023-02-23T11:53:28;22.73;;;11.30;;
17253;SDS011;32542;52.832;13.816;2023-02-23T11:56:36;14.95;;;10.88;;
17253;SDS011;32542;52.832;13.816;2023-02-23T11:59:39;15.40;;;11.07;;
17253;SDS011;32542;52.832;13.816;2023-02-23T12:02:48;18.13;;;11.05;;
17253;SDS011;32542;52.832;13.816;2023-02-23T12:05:57;14.20;;;10.10;;
17253;SDS011;32542;52.832;13.816;2023-02-23T12:09:04;18.20;;;10.38;;
17253;SDS011;32542;52.832;13.816;2023-02-23T12:12:15;17.10;;;11.15;;
17253;SDS011;32542;52.832;13.816;2023-02-23T12:15:27;19.33;;;10.02;;
17253;SDS011;32542;52.832;13.816;2023-02-23T12:18:40;19.33;;;9.82;;
17253;SDS011;32542;52.832;13.816;2023-02-23T12:21:51;15.98;;;9.80;;
17253;SDS011;32542;52.832;13.816;2023-02-23T12:25:00;14.75;;;9.45;;
17253;SDS011;32542;52.832;13.816;2023-02-23T12:28:08;17.20;;;9.68;;
17253;SDS011;32542;52.832;13.816;2023-02-23T12:31:21;18.55;;;10.48;;
17253;SDS011;32542;52.832;13.816;2023-02-23T12:34:31;19.83;;;10.45;;
17253;SDS011;32542;52.832;13.816;2023-02-23T12:37:44;21.40;;;10.18;;
17253;SDS011;32542;52.832;13.816;2023-02-23T12:40:50;17.95;;;9.10;;
17253;SDS011;32542;52.832;13.816;2023-02-23T12:43:58;18.05;;;9.40;;
17253;SDS011;32542;52.832;13.816;2023-02-23T12:47:08;21.33;;;9.57;;
17253;SDS011;32542;52.832;13.816;2023-02-23T12:50:23;14.10;;;8.02;;
17253;SDS011;32542;52.832;13.816;2023-02-23T12:53:33;17.67;;;8.68;;
17253;SDS011;32542;52.832;13.816;2023-02-23T12:56:43;13.30;;;8.35;;
17253;SDS011;32542;52.832;13.816;2023-02-23T12:59:58;13.55;;;7.57;;
17253;SDS011;32542;52.832;13.816;2023-02-23T13:03:38;14.35;;;8.35;;
17253;SDS011;32542;52.832;13.816;2023-02-23T13:07:11;15.80;;;8.50;;
17253;SDS011;32542;52.832;13.816;2023-02-23T13:10:26;18.88;;;9.00;;
17253;SDS011;32542;52.832;13.816;2023-02-23T13:13:39;14.15;;;9.10;;
17253;SDS011;32542;52.832;13.816;2023-02-23T13:16:49;14.85;;;8.80;;
17253;SDS011;32542;52.832;13.816;2023-02-23T13:19:56;15.45;;;8.77;;
17253;SDS011;32542;52.832;13.816;2023-02-23T13:23:10;16.38;;;9.32;;
17253;SDS011;32542;52.832;13.816;2023-02-23T13:26:21;13.95;;;8.88;;
17253;SDS011;32542;52.832;13.816;2023-02-23T13:29:33;14.68;;;9.40;;
17253;SDS011;32542;52.832;13.816;2023-02-23T13:32:39;16.27;;;9.15;;
17253;SDS011;32542;52.832;13.816;2023-02-23T13:35:42;15.40;;;9.43;;
17253;SDS011;32542;52.832;13.816;2023-02-23T13:38:49;16.33;;;9.93;;
17253;SDS011;32542;52.832;13.816;2023-02-23T13:42:25;19.23;;;10.48;;
17253;SDS011;32542;52.832;13.816;2023-02-23T13:45:37;16.58;;;10.10;;
17253;SDS011;32542;52.832;13.816;2023-02-23T13:48:52;16.73;;;10.43;;
17253;SDS011;32542;52.832;13.816;2023-02-23T13:52:08;16.88;;;10.48;;
17253;SDS011;32542;52.832;13.816;2023-02-23T13:55:33;18.80;;;10.65;;
17253;SDS011;32542;52.832;13.816;2023-02-23T13:58:52;17.23;;;10.45;;
17253;SDS011;32542;52.832;13.816;2023-02-23T14:01:59;16.13;;;10.90;;
17253;SDS011;32542;52.832;13.816;2023-02-23T14:05:14;20.88;;;10.10;;
17253;SDS011;32542;52.832;13.816;2023-02-23T14:08:21;19.23;;;10.82;;
17253;SDS011;32542;52.832;13.816;2023-02-23T14:11:45;17.95;;;10.45;;
17253;SDS011;32542;52.832;13.816;2023-02-23T14:14:52;19.75;;;10.95;;
17253;SDS011;32542;52.832;13.816;2023-02-23T14:17:56;18.13;;;10.93;;
17253;SDS011;32542;52.832;13.816;2023-02-23T14:21:02;17.88;;;11.05;;
17253;SDS011;32542;52.832;13.816;2023-02-23T14:24:16;19.35;;;10.93;;
17253;SDS011;32542;52.832;13.816;2023-02-23T14:27:22;17.15;;;10.75;;
17253;SDS011;32542;52.832;13.816;2023-02-23T14:30:44;19.45;;;10.30;;
17253;SDS011;32542;52.832;13.816;2023-02-23T14:33:56;16.75;;;10.82;;
17253;SDS011;32542;52.832;13.816;2023-02-23T14:37:03;18.63;;;11.10;;
17253;SDS011;32542;52.832;13.816;2023-02-23T14:40:16;15.70;;;9.93;;
17253;SDS011;32542;52.832;13.816;2023-02-23T14:43:32;19.15;;;11.13;;
17253;SDS011;32542;52.832;13.816;2023-02-23T14:46:48;19.33;;;10.35;;
17253;SDS011;32542;52.832;13.816;2023-02-23T14:49:57;17.00;;;10.30;;
17253;SDS011;32542;52.832;13.816;2023-02-23T14:53:03;21.85;;;10.68;;
17253;SDS011;32542;52.832;13.816;2023-02-23T14:56:16;19.13;;;10.23;;
17253;SDS011;32542;52.832;13.816;2023-02-23T14:59:21;19.90;;;11.15;;
17253;SDS011;32542;52.832;13.816;2023-02-23T15:02:29;21.00;;;10.07;;
17253;SDS011;32542;52.832;13.816;2023-02-23T15:05:33;18.98;;;10.20;;
17253;SDS011;32542;52.832;13.816;2023-02-23T15:08:39;19.80;;;10.10;;
17253;SDS011;32542;52.832;13.816;2023-02-23T15:11:46;16.45;;;9.85;;
17253;SDS011;32542;52.832;13.816;2023-02-23T15:14:51;18.55;;;9.93;;
17253;SDS011;32542;52.832;13.816;2023-02-23T15:17:59;17.27;;;10.18;;
17253;SDS011;32542;52.832;13.816;2023-02-23T15:21:05;18.35;;;10.57;;
17253;SDS011;32542;52.832;13.816;2023-02-23T15:24:11;18.00;;;10.07;;
17253;SDS011;32542;52.832;13.816;2023-02-23T15:27:17;18.55;;;10.15;;
17253;SDS011;32542;52.832;13.816;2023-02-23T15:30:24;16.10;;;9.35;;
17253;SDS011;32542;52.832;13.816;2023-02-23T15:33:32;16.90;;;8.77;;
17253;SDS011;32542;52.832;13.816;2023-02-23T15:36:35;13.73;;;8.80;;
17253;SDS011;32542;52.832;13.816;2023-02-23T15:39:42;16.08;;;10.18;;
17253;SDS011;32542;52.832;13.816;2023-02-23T15:42:53;17.77;;;8.68;;
17253;SDS011;32542;52.832;13.816;2023-02-23T15:46:01;16.40;;;8.52;;
17253;SDS011;32542;52.832;13.816;2023-02-23T15:49:10;20.83;;;8.75;;
17253;SDS011;32542;52.832;13.816;2023-02-23T15:52:15;20.80;;;9.15;;
17253;SDS011;32542;52.832;13.816;2023-02-23T15:55:23;18.60;;;9.10;;
17253;SDS011;32542;52.832;13.816;2023-02-23T15:58:29;16.05;;;8.65;;
17253;SDS011;32542;52.832;13.816;2023-02-23T16:01:38;18.20;;;8.65;;
17253;SDS011;32542;52.832;13.816;2023-02-23T16:04:46;16.92;;;8.73;;
17253;SDS011;32542;52.832;13.816;2023-02-23T16:08:00;17.35;;;8.75;;
17253;SDS011;32542;52.832;13.816;2023-02-23T16:11:07;17.33;;;8.13;;
17253;SDS011;32542;52.832;13.816;2023-02-23T16:14:14;13.23;;;7.78;;
17253;SDS011;32542;52.832;13.816;2023-02-23T16:17:22;14.30;;;8.30;;
17253;SDS011;32542;52.832;13.816;2023-02-23T16:20:32;17.92;;;8.35;;
17253;SDS011;32542;52.832;13.816;2023-02-23T16:23:39;16.30;;;8.68;;
17253;SDS011;32542;52.832;13.816;2023-02-23T16:26:45;14.45;;;8.48;;
17253;SDS011;32542;52.832;13.816;2023-02-23T16:29:54;15.00;;;9.00;;
17253;SDS011;32542;52.832;13.816;2023-02-23T16:33:01;17.58;;;8.82;;
17253;SDS011;32542;52.832;13.816;2023-02-23T16:36:13;14.63;;;8.63;;
17253;SDS011;32542;52.832;13.816;2023-02-23T16:39:20;19.25;;;9.27;;
17253;SDS011;32542;52.832;13.816;2023-02-23T16:42:27;19.90;;;8.95;;
17253;SDS011;32542;52.832;13.816;2023-02-23T16:45:34;16.58;;;9.00;;
17253;SDS011;32542;52.832;13.816;2023-02-23T16:48:38;17.23;;;8.95;;
17253;SDS011;32542;52.832;13.816;2023-02-23T16:51:43;16.73;;;9.38;;
17253;SDS011;32542;52.832;13.816;2023-02-23T16:54:47;17.25;;;9.73;;
17253;SDS011;32542;52.832;13.816;2023-02-23T16:57:56;20.67;;;9.43;;
17253;SDS011;32542;52.832;13.816;2023-02-23T17:01:02;18.92;;;10.55;;
17253;SDS011;32542;52.832;13.816;2023-02-23T17:04:08;17.42;;;9.80;;
17253;SDS011;32542;52.832;13.816;2023-02-23T17:07:18;19.00;;;9.88;;
17253;SDS011;32542;52.832;13.816;2023-02-23T17:10:25;17.15;;;10.25;;
17253;SDS011;32542;52.832;13.816;2023-02-23T17:13:30;17.48;;;9.45;;
17253;SDS011;32542;52.832;13.816;2023-02-23T17:16:34;18.35;;;8.95;;
17253;SDS011;32542;52.832;13.816;2023-02-23T17:19:37;17.88;;;9.70;;
17253;SDS011;32542;52.832;13.816;2023-02-23T17:22:42;19.50;;;10.02;;
17253;SDS011;32542;52.832;13.816;2023-02-23T17:25:45;15.90;;;8.98;;
17253;SDS011;32542;52.832;13.816;2023-02-23T17:28:48;17.35;;;9.25;;
17253;SDS011;32542;52.832;13.816;2023-02-23T17:31:51;16.58;;;8.75;;
17253;SDS011;32542;52.832;13.816;2023-02-23T17:34:55;17.98;;;10.00;;
17253;SDS011;32542;52.832;13.816;2023-02-23T17:37:59;17.83;;;8.75;;
17253;SDS011;32542;52.832;13.816;2023-02-23T17:41:03;14.70;;;9.27;;
17253;SDS011;32542;52.832;13.816;2023-02-23T17:44:08;17.80;;;9.02;;
17253;SDS011;32542;52.832;13.816;2023-02-23T17:47:12;15.68;;;9.05;;
17253;SDS011;32542;52.832;13.816;2023-02-23T17:50:15;18.83;;;9.38;;
17253;SDS011;32542;52.832;13.816;2023-02-23T17:53:21;14.77;;;8.90;;
17253;SDS011;32542;52.832;13.816;2023-02-23T17:56:24;16.40;;;9.20;;
17253;SDS011;32542;52.832;13.816;2023-02-23T17:59:28;17.20;;;8.18;;
17253;SDS011;32542;52.832;13.816;2023-02-23T18:02:31;14.48;;;8.68;;
17253;SDS011;32542;52.832;13.816;2023-02-23T18:05:35;13.57;;;8.25;;
17253;SDS011;32542;52.832;13.816;2023-02-23T18:08:40;13.45;;;9.18;;
17253;SDS011;32542;52.832;13.816;2023-02-23T18:11:44;19.80;;;9.07;;
17253;SDS011;32542;52.832;13.816;2023-02-23T18:14:47;13.90;;;8.23;;
17253;SDS011;32542;52.832;13.816;2023-02-23T18:17:50;16.65;;;8.57;;
17253;SDS011;32542;52.832;13.816;2023-02-23T18:20:55;13.70;;;7.95;;
17253;SDS011;32542;52.832;13.816;2023-02-23T18:24:01;19.23;;;7.95;;
17253;SDS011;32542;52.832;13.816;2023-02-23T18:27:04;17.65;;;8.65;;
17253;SDS011;32542;52.832;13.816;2023-02-23T18:30:08;21.88;;;8.98;;
17253;SDS011;32542;52.832;13.816;2023-02-23T18:33:12;19.50;;;8.40;;